Terminal Aerodrome Forecast
Issued by NWS

Home | Current Version | Previous Version | Graphics & Text | Print | Product List | Glossary On
Versions: 1 2 3 4 5 6 7 8 9 10 11 12 13 14 15 16 17 18 19
000
FTUS43 KIWX 010500
TAFSBN
TAF
KSBN 010539Z 0106/0206 VRB04KT 1 1/2SM -SN BR OVC005
      TEMPO 0106/0110 3/4SM -SN OVC002
     FM011000 08009KT 3/4SM -SN OVC003
     FM011300 07012KT 1/2SM SN FZFG VV004
     FM011800 07013G23KT 1/2SM SN FZFG BLSN VV003
     FM012100 07016G27KT 1/4SM SN FZFG BLSN VV003
     FM020400 05019G30KT 1/2SM SN FZFG BLSN VV005=

USA.gov is the U.S. government's official web portal to all federal, state and local government web resources and services.